createdAt,value
2022-10-23T00:01:35.502Z,14.80
2022-10-23T00:04:21.665Z,14.00
2022-10-23T00:06:48.797Z,12.60
2022-10-23T00:09:17.565Z,11.40
2022-10-23T00:11:47.551Z,12.25
2022-10-23T00:14:14.549Z,15.00
2022-10-23T00:16:40.984Z,14.50
2022-10-23T00:19:07.494Z,15.60
2022-10-23T00:21:33.942Z,14.00
2022-10-23T00:24:00.598Z,11.60
2022-10-23T00:26:27.128Z,13.50
2022-10-23T00:28:54.387Z,14.40
2022-10-23T00:31:21.730Z,15.60
2022-10-23T00:33:48.461Z,14.40
2022-10-23T00:36:16.429Z,14.75
2022-10-23T00:38:42.954Z,12.40
2022-10-23T00:41:10.454Z,14.80
2022-10-23T00:43:54.644Z,15.50
2022-10-23T00:46:21.110Z,14.00
2022-10-23T00:48:47.568Z,17.00
2022-10-23T00:51:14.235Z,14.75
2022-10-23T00:53:40.957Z,15.00
2022-10-23T00:56:07.517Z,16.00
2022-10-23T00:58:33.973Z,15.00
2022-10-23T01:01:00.472Z,14.50
2022-10-23T01:03:28.335Z,15.40
2022-10-23T01:05:57.790Z,16.00
2022-10-23T01:08:35.118Z,13.50
2022-10-23T01:11:10.704Z,14.00
2022-10-23T01:13:44.841Z,13.00
2022-10-23T01:16:18.694Z,14.50
2022-10-23T01:18:49.480Z,14.00
2022-10-23T01:21:23.989Z,14.00
2022-10-23T01:24:02.823Z,14.60
2022-10-23T01:26:49.535Z,14.40
2022-10-23T01:29:19.896Z,15.00
2022-10-23T01:31:56.394Z,15.00
2022-10-23T01:34:25.963Z,11.75
2022-10-23T01:36:53.723Z,15.00
2022-10-23T01:39:30.128Z,12.20
2022-10-23T01:42:10.890Z,13.00
2022-10-23T01:44:49.140Z,13.80
2022-10-23T01:47:17.769Z,13.20
2022-10-23T01:49:44.810Z,15.25
2022-10-23T01:52:13.208Z,13.50
2022-10-23T01:54:42.220Z,13.00
2022-10-23T01:57:10.414Z,13.00
2022-10-23T01:59:42.177Z,14.00
2022-10-23T02:02:10.336Z,15.00
2022-10-23T02:04:39.615Z,13.25
2022-10-23T02:07:06.443Z,13.50
2022-10-23T02:09:33.355Z,14.60
2022-10-23T02:12:03.491Z,15.40
2022-10-23T02:14:40.999Z,12.20
2022-10-23T02:17:21.616Z,15.00
2022-10-23T02:19:48.066Z,12.40
2022-10-23T02:22:18.784Z,14.00
2022-10-23T02:25:01.027Z,11.75
2022-10-23T02:27:47.690Z,12.00
2022-10-23T02:30:16.156Z,13.67
2022-10-23T02:32:46.436Z,12.00
2022-10-23T02:35:13.073Z,15.00
2022-10-23T02:37:40.135Z,11.60
2022-10-23T02:40:08.799Z,15.00
2022-10-23T02:42:49.220Z,13.60
2022-10-23T02:45:15.631Z,14.00
2022-10-23T02:47:55.352Z,13.00
2022-10-23T02:50:44.746Z,14.00
2022-10-23T02:53:11.239Z,13.00
2022-10-23T02:55:40.564Z,13.40
2022-10-23T02:58:25.847Z,12.00
2022-10-23T03:00:54.837Z,13.00
2022-10-23T03:03:30.104Z,13.50
2022-10-23T03:05:56.647Z,12.40
2022-10-23T03:08:23.115Z,12.75
2022-10-23T03:10:49.622Z,13.00
2022-10-23T03:13:16.073Z,10.60
2022-10-23T03:15:42.532Z,11.25
2022-10-23T03:18:09.099Z,12.00
2022-10-23T03:20:35.552Z,11.00
2022-10-23T03:23:02.047Z,10.60
2022-10-23T03:25:28.764Z,12.40
2022-10-23T03:27:55.237Z,10.25
2022-10-23T03:30:21.748Z,12.00
2022-10-23T03:32:48.190Z,13.00
2022-10-23T03:35:14.646Z,12.60
2022-10-23T03:37:41.345Z,9.50
2022-10-23T03:40:08.332Z,10.80
2022-10-23T03:42:34.872Z,10.00
2022-10-23T03:45:01.298Z,9.80
2022-10-23T03:47:27.823Z,15.50
2022-10-23T03:49:54.297Z,10.20
2022-10-23T03:52:20.760Z,12.40
2022-10-23T03:54:47.249Z,10.50
2022-10-23T03:57:13.807Z,11.00
2022-10-23T03:59:40.269Z,11.80
2022-10-23T04:02:06.833Z,11.00
2022-10-23T04:04:33.363Z,10.60
2022-10-23T04:06:59.838Z,12.50
2022-10-23T04:09:26.464Z,12.50
2022-10-23T04:11:52.933Z,12.00
2022-10-23T04:14:19.402Z,11.67
2022-10-23T04:16:45.836Z,12.00
2022-10-23T04:19:12.268Z,12.00
2022-10-23T04:21:38.750Z,12.00
2022-10-23T04:24:05.402Z,13.00
2022-10-23T04:26:31.855Z,10.00
2022-10-23T04:28:58.533Z,10.00
2022-10-23T04:31:24.993Z,12.00
2022-10-23T04:33:51.422Z,13.00
2022-10-23T04:36:18.007Z,10.25
2022-10-23T04:38:44.434Z,11.67
2022-10-23T04:41:10.907Z,11.00
2022-10-23T04:43:37.378Z,10.00
2022-10-23T04:46:03.861Z,12.00
2022-10-23T04:48:30.510Z,11.50
2022-10-23T04:50:58.588Z,11.60
2022-10-23T04:53:25.439Z,11.00
2022-10-23T04:55:52.823Z,12.00
2022-10-23T04:58:19.728Z,11.00
2022-10-23T05:00:46.582Z,12.00
2022-10-23T05:03:13.293Z,11.00
2022-10-23T05:05:39.740Z,11.00
2022-10-23T05:08:06.274Z,10.75
2022-10-23T05:10:32.782Z,13.00
2022-10-23T05:12:59.242Z,12.00
2022-10-23T05:15:25.842Z,12.00
2022-10-23T05:17:55.182Z,10.00
2022-10-23T05:20:24.495Z,10.20
2022-10-23T05:22:52.489Z,12.00
2022-10-23T05:25:18.983Z,14.00
2022-10-23T05:27:45.750Z,13.00
2022-10-23T05:30:12.752Z,11.20
2022-10-23T05:32:40.350Z,11.80
2022-10-23T05:35:08.435Z,11.75
2022-10-23T05:37:37.141Z,13.00
2022-10-23T05:40:03.799Z,12.80
2022-10-23T05:42:30.254Z,13.00
2022-10-23T05:44:56.713Z,15.00
2022-10-23T05:47:23.171Z,14.50
2022-10-23T05:49:49.638Z,12.60
2022-10-23T05:52:16.067Z,13.50
2022-10-23T05:54:42.513Z,12.75
2022-10-23T05:57:09.055Z,12.80
2022-10-23T05:59:35.565Z,12.00
2022-10-23T06:02:02.068Z,12.00
2022-10-23T06:04:28.657Z,12.50
2022-10-23T06:06:55.092Z,13.50
2022-10-23T06:09:21.530Z,12.25
2022-10-23T06:11:47.999Z,14.00
2022-10-23T06:14:14.456Z,12.00
2022-10-23T06:16:40.928Z,13.75
2022-10-23T06:19:09.704Z,15.00
2022-10-23T06:21:36.831Z,12.00
2022-10-23T06:24:04.109Z,13.60
2022-10-23T06:26:30.545Z,13.00
2022-10-23T06:28:56.990Z,14.00
2022-10-23T06:31:28.296Z,15.00
2022-10-23T06:33:55.339Z,14.60
2022-10-23T06:36:22.077Z,12.80
2022-10-23T06:38:49.544Z,12.00
2022-10-23T06:41:17.572Z,15.75
2022-10-23T06:43:44.332Z,15.00
2022-10-23T06:46:10.940Z,13.67
2022-10-23T06:48:41.505Z,13.00
2022-10-23T06:51:09.294Z,15.80
2022-10-23T06:53:36.432Z,14.40
2022-10-23T06:56:04.281Z,12.00
2022-10-23T06:58:30.801Z,13.00
2022-10-23T07:01:00.020Z,11.20
2022-10-23T07:03:26.551Z,13.00
2022-10-23T07:05:53.084Z,11.20
2022-10-23T07:08:19.653Z,15.25
2022-10-23T07:10:46.088Z,15.60
2022-10-23T07:13:12.530Z,13.00
2022-10-23T07:15:39.833Z,13.50
2022-10-23T07:18:06.505Z,11.60
2022-10-23T07:20:33.250Z,13.25
2022-10-23T07:22:59.726Z,13.00
2022-10-23T07:25:26.678Z,14.00
2022-10-23T07:27:55.397Z,9.60
2022-10-23T07:30:21.969Z,12.40
2022-10-23T07:32:49.126Z,12.25
2022-10-23T07:35:16.404Z,13.20
2022-10-23T07:37:43.119Z,13.50
2022-10-23T07:40:10.142Z,11.50
2022-10-23T07:42:36.665Z,11.50
2022-10-23T07:45:04.468Z,10.60
2022-10-23T07:47:32.649Z,10.25
2022-10-23T07:49:59.199Z,13.00
2022-10-23T07:52:25.647Z,12.00
2022-10-23T07:54:52.463Z,11.00
2022-10-23T07:57:19.134Z,11.50
2022-10-23T07:59:45.639Z,10.75
2022-10-23T08:02:13.225Z,11.60
2022-10-23T08:04:41.435Z,13.40
2022-10-23T08:07:07.845Z,11.00
2022-10-23T08:09:35.303Z,10.80
2022-10-23T08:12:01.836Z,12.75
2022-10-23T08:14:28.769Z,11.75
2022-10-23T08:16:55.388Z,11.20
2022-10-23T08:19:21.881Z,12.00
2022-10-23T08:21:48.373Z,12.00
2022-10-23T08:24:14.911Z,12.00
2022-10-23T08:26:43.750Z,10.00
2022-10-23T08:29:10.245Z,12.00
2022-10-23T08:31:36.710Z,9.60
2022-10-23T08:34:03.205Z,12.50
2022-10-23T08:36:29.919Z,11.50
2022-10-23T08:38:57.444Z,10.40
2022-10-23T08:41:32.363Z,13.40
2022-10-23T08:44:17.218Z,10.50
2022-10-23T08:46:48.186Z,11.80
2022-10-23T08:49:30.896Z,10.60
2022-10-23T08:51:59.201Z,11.20
2022-10-23T08:54:37.047Z,13.00
2022-10-23T08:57:09.337Z,10.00
2022-10-23T08:59:44.000Z,12.80
2022-10-23T09:02:10.680Z,10.60
2022-10-23T09:04:37.190Z,11.00
2022-10-23T09:07:10.766Z,12.40
2022-10-23T09:09:40.286Z,10.60
2022-10-23T09:12:17.913Z,11.40
2022-10-23T09:14:56.545Z,11.00
2022-10-23T09:17:27.645Z,11.80
2022-10-23T09:20:12.922Z,10.60
2022-10-23T09:22:39.634Z,9.40
2022-10-23T09:25:17.497Z,11.00
2022-10-23T09:27:49.623Z,10.80
2022-10-23T09:30:33.574Z,10.00
2022-10-23T09:33:00.615Z,9.25
2022-10-23T09:35:29.247Z,10.00
2022-10-23T09:37:56.093Z,10.00
2022-10-23T09:40:29.846Z,11.50
2022-10-23T09:42:56.324Z,10.60
2022-10-23T09:45:24.520Z,9.00
2022-10-23T09:47:50.966Z,9.00
2022-10-23T09:50:19.874Z,9.25
2022-10-23T09:52:50.057Z,9.00
2022-10-23T09:55:21.430Z,9.80
2022-10-23T09:57:48.142Z,10.00
2022-10-23T10:00:14.683Z,8.40
2022-10-23T10:02:42.633Z,8.20
2022-10-23T10:05:26.336Z,10.00
2022-10-23T10:08:05.783Z,10.00
2022-10-23T10:10:37.729Z,8.25
2022-10-23T10:13:15.046Z,10.00
2022-10-23T10:15:48.942Z,10.75
2022-10-23T10:20:59.491Z,10.00
2022-10-23T10:23:31.711Z,8.00
2022-10-23T10:26:01.344Z,9.75
2022-10-23T10:28:46.633Z,9.60
2022-10-23T10:31:19.633Z,8.00
2022-10-23T10:34:04.721Z,10.00
2022-10-23T10:36:52.753Z,10.00
2022-10-23T10:39:32.081Z,8.60
2022-10-23T10:41:58.477Z,8.40
2022-10-23T10:44:43.817Z,9.20
2022-10-23T10:47:14.944Z,8.00
2022-10-23T10:49:55.944Z,9.50
2022-10-23T10:52:22.357Z,9.75
2022-10-23T10:54:54.563Z,7.20
2022-10-23T10:57:30.668Z,10.00
2022-10-23T10:59:59.747Z,8.75
2022-10-23T11:02:31.612Z,9.00
2022-10-23T11:05:05.914Z,8.00
2022-10-23T11:07:39.537Z,11.00
2022-10-23T11:10:14.842Z,8.50
2022-10-23T11:12:43.013Z,8.20
2022-10-23T11:15:13.170Z,9.00
2022-10-23T11:17:40.990Z,9.00
2022-10-23T11:20:25.402Z,9.50
2022-10-23T11:22:51.890Z,7.00
2022-10-23T11:25:30.625Z,8.80
2022-10-23T11:28:03.618Z,6.50
2022-10-23T11:30:34.532Z,9.40
2022-10-23T11:33:19.801Z,9.40
2022-10-23T11:35:55.290Z,8.75
2022-10-23T11:38:26.450Z,8.00
2022-10-23T11:40:54.829Z,10.00
2022-10-23T11:43:28.569Z,7.00
2022-10-23T11:45:55.309Z,7.60
2022-10-23T11:48:40.015Z,9.00
2022-10-23T11:51:06.922Z,8.00
2022-10-23T11:53:33.347Z,8.50
2022-10-23T11:56:24.187Z,7.00
2022-10-23T11:58:51.750Z,8.00
2022-10-23T12:01:24.385Z,9.00
2022-10-23T12:03:52.817Z,8.00
2022-10-23T12:06:29.956Z,7.00
2022-10-23T12:08:59.397Z,7.00
2022-10-23T12:11:27.921Z,8.40
2022-10-23T12:13:54.434Z,8.00
2022-10-23T12:16:20.950Z,7.00
2022-10-23T12:18:49.039Z,8.25
2022-10-23T12:21:20.043Z,7.60
2022-10-23T12:23:53.211Z,7.80
2022-10-23T12:26:22.411Z,7.20
2022-10-23T12:28:48.800Z,8.20
2022-10-23T12:31:18.294Z,8.00
2022-10-23T12:33:47.686Z,7.60
2022-10-23T12:36:23.313Z,9.00
2022-10-23T12:38:57.377Z,9.00
2022-10-23T12:41:28.685Z,7.20
2022-10-23T12:43:55.119Z,9.60
2022-10-23T12:46:21.545Z,8.50
2022-10-23T12:48:49.502Z,9.00
2022-10-23T12:51:22.394Z,8.75
2022-10-23T12:53:49.030Z,10.00
2022-10-23T12:56:16.055Z,9.00
2022-10-23T12:58:50.210Z,9.00
2022-10-23T13:01:27.167Z,8.00
2022-10-23T13:04:06.057Z,9.00
2022-10-23T13:06:32.526Z,10.80
2022-10-23T13:08:59.171Z,10.60
2022-10-23T13:11:27.404Z,10.50
2022-10-23T13:13:53.825Z,9.40
2022-10-23T13:16:24.438Z,10.00
2022-10-23T13:18:51.157Z,11.00
2022-10-23T13:21:22.297Z,11.00
2022-10-23T13:23:49.153Z,10.00
2022-10-23T13:26:36.945Z,10.00
2022-10-23T13:29:07.441Z,11.00
2022-10-23T13:31:35.978Z,10.80
2022-10-23T13:34:02.430Z,12.00
2022-10-23T13:36:29.942Z,11.40
2022-10-23T13:39:01.406Z,8.40
2022-10-23T13:41:29.550Z,10.50
2022-10-23T13:43:56.054Z,12.75
2022-10-23T13:46:25.437Z,11.00
2022-10-23T13:48:52.228Z,10.80
2022-10-23T13:51:29.991Z,9.75
2022-10-23T13:53:57.273Z,10.00
2022-10-23T13:56:24.631Z,11.00
2022-10-23T13:58:51.365Z,10.20
2022-10-23T14:01:22.530Z,10.75
2022-10-23T14:03:52.630Z,10.00
2022-10-23T14:06:19.435Z,9.60
2022-10-23T14:08:45.905Z,9.60
2022-10-23T14:11:16.212Z,11.00
2022-10-23T14:13:42.735Z,11.00
2022-10-23T14:16:09.955Z,12.00
2022-10-23T14:18:36.441Z,11.00
2022-10-23T14:21:04.325Z,11.20
2022-10-23T14:23:30.848Z,12.00
2022-10-23T14:26:04.197Z,11.00
2022-10-23T14:28:30.706Z,11.60
2022-10-23T14:30:57.517Z,11.75
2022-10-23T14:33:23.980Z,11.20
2022-10-23T14:35:51.259Z,13.00
2022-10-23T14:38:17.740Z,12.00
2022-10-23T14:40:44.194Z,12.25
2022-10-23T14:43:43.276Z,14.00
2022-10-23T14:46:13.885Z,11.00
2022-10-23T14:48:42.590Z,10.00
2022-10-23T14:51:20.425Z,11.50
2022-10-23T14:53:47.553Z,12.00
2022-10-23T14:56:14.045Z,13.40
2022-10-23T14:58:42.128Z,11.50
2022-10-23T15:01:10.044Z,11.75
2022-10-23T15:03:36.990Z,12.00
2022-10-23T15:06:04.182Z,10.25
2022-10-23T15:08:30.642Z,11.50
2022-10-23T15:11:00.152Z,11.00
2022-10-23T15:13:26.752Z,10.00
2022-10-23T15:16:06.468Z,11.60
2022-10-23T15:18:33.157Z,11.75
2022-10-23T15:21:00.009Z,11.00
2022-10-23T15:23:26.448Z,12.00
2022-10-23T15:25:59.802Z,12.75
2022-10-23T15:28:27.316Z,12.60
2022-10-23T15:30:54.088Z,13.00
2022-10-23T15:33:21.080Z,10.00
2022-10-23T15:35:47.628Z,10.75
2022-10-23T15:38:14.107Z,11.80
2022-10-23T15:40:41.239Z,11.50
2022-10-23T15:43:11.328Z,12.25
2022-10-23T15:45:39.547Z,11.00
2022-10-23T15:48:06.495Z,11.50
2022-10-23T15:50:33.250Z,12.25
2022-10-23T15:52:59.689Z,11.40
2022-10-23T15:55:28.471Z,11.40
2022-10-23T15:57:55.360Z,12.50
2022-10-23T16:00:21.970Z,12.00
2022-10-23T16:02:48.578Z,11.50
2022-10-23T16:05:17.368Z,12.60
2022-10-23T16:07:43.826Z,12.00
2022-10-23T16:10:10.252Z,12.60
2022-10-23T16:12:36.712Z,12.80
2022-10-23T16:15:03.376Z,12.00
2022-10-23T16:17:29.897Z,12.75
2022-10-23T16:19:56.369Z,13.00
2022-10-23T16:22:22.831Z,12.40
2022-10-23T16:24:49.272Z,10.75
2022-10-23T16:27:15.758Z,13.00
2022-10-23T16:29:42.246Z,13.75
2022-10-23T16:32:11.743Z,11.00
2022-10-23T16:34:38.247Z,11.00
2022-10-23T16:37:04.755Z,12.00
2022-10-23T16:39:31.623Z,13.50
2022-10-23T16:41:58.349Z,10.00
2022-10-23T16:44:24.840Z,11.50
2022-10-23T16:46:51.268Z,12.00
2022-10-23T16:49:17.893Z,11.60
2022-10-23T16:51:44.322Z,9.75
2022-10-23T16:54:10.810Z,11.20
2022-10-23T16:56:37.276Z,11.25
2022-10-23T16:59:03.775Z,10.60
2022-10-23T17:01:31.780Z,9.40
2022-10-23T17:03:58.530Z,10.80
2022-10-23T17:06:27.041Z,12.20
2022-10-23T17:08:54.157Z,9.50
2022-10-23T17:11:22.310Z,10.00
2022-10-23T17:13:59.911Z,11.00
2022-10-23T17:16:34.820Z,10.50
2022-10-23T17:19:01.980Z,10.00
2022-10-23T17:21:31.220Z,12.20
2022-10-23T17:23:57.720Z,10.40
2022-10-23T17:26:24.257Z,10.00
2022-10-23T17:28:50.728Z,11.00
2022-10-23T17:31:27.947Z,10.60
2022-10-23T17:33:57.477Z,11.75
2022-10-23T17:36:25.149Z,11.00
2022-10-23T17:38:51.752Z,12.00
2022-10-23T17:41:19.430Z,11.00
2022-10-23T17:43:46.588Z,9.50
2022-10-23T17:46:13.607Z,14.00
2022-10-23T17:48:43.465Z,12.60
2022-10-23T17:51:11.583Z,12.20
2022-10-23T17:53:38.801Z,11.00
2022-10-23T17:56:06.594Z,12.60
2022-10-23T17:58:33.410Z,13.00
2022-10-23T18:01:10.344Z,12.00
2022-10-23T18:03:37.389Z,12.00
2022-10-23T18:06:31.992Z,12.00
2022-10-23T18:08:59.193Z,10.80
2022-10-23T18:11:26.969Z,11.80
2022-10-23T18:13:53.648Z,11.00
2022-10-23T18:16:20.785Z,11.00
2022-10-23T18:18:48.319Z,13.00
2022-10-23T18:21:15.887Z,12.00
2022-10-23T18:23:42.544Z,10.50
2022-10-23T18:26:16.009Z,12.20
2022-10-23T18:28:43.426Z,13.50
2022-10-23T18:31:10.794Z,12.00
2022-10-23T18:33:37.282Z,12.50
2022-10-23T18:36:04.160Z,12.00
2022-10-23T18:38:30.647Z,12.50
2022-10-23T18:40:57.088Z,10.40
2022-10-23T18:43:38.800Z,10.80
2022-10-23T18:46:10.502Z,12.00
2022-10-23T18:48:36.996Z,12.25
2022-10-23T18:51:03.517Z,12.50
2022-10-23T18:53:30.044Z,12.00
2022-10-23T18:55:56.561Z,12.20
2022-10-23T18:58:23.037Z,12.20
2022-10-23T19:00:49.681Z,10.00
2022-10-23T19:03:16.179Z,12.20
2022-10-23T19:05:43.999Z,13.40
2022-10-23T19:08:11.173Z,12.00
2022-10-23T19:10:37.977Z,12.00
2022-10-23T19:13:04.545Z,11.00
2022-10-23T19:15:32.682Z,12.00
2022-10-23T19:17:59.529Z,12.25
2022-10-23T19:22:53.757Z,13.40
2022-10-23T19:25:22.762Z,12.00
2022-10-23T19:27:49.550Z,10.00
2022-10-23T19:30:21.893Z,12.25
2022-10-23T19:32:49.863Z,13.00
2022-10-23T19:35:18.412Z,12.00
2022-10-23T19:37:45.730Z,10.60
2022-10-23T19:40:13.485Z,11.60
2022-10-23T19:42:41.363Z,11.20
2022-10-23T19:45:12.455Z,12.60
2022-10-23T19:47:39.417Z,12.00
2022-10-23T19:50:07.784Z,12.00
2022-10-23T19:52:34.815Z,12.50
2022-10-23T19:55:03.309Z,12.75
2022-10-23T19:57:33.880Z,9.60
2022-10-23T20:00:01.078Z,11.50
2022-10-23T20:02:27.922Z,12.50
2022-10-23T20:04:54.622Z,13.50
2022-10-23T20:07:21.567Z,12.00
2022-10-23T20:09:48.828Z,12.00
2022-10-23T20:12:15.470Z,12.50
2022-10-23T20:14:42.144Z,11.80
2022-10-23T20:17:08.768Z,12.33
2022-10-23T20:19:35.316Z,8.50
2022-10-23T20:22:01.949Z,14.00
2022-10-23T20:24:28.423Z,11.50
2022-10-23T20:26:55.786Z,11.25
2022-10-23T20:29:22.914Z,14.20
2022-10-23T20:31:49.573Z,11.00
2022-10-23T20:34:19.819Z,12.00
2022-10-23T20:36:49.778Z,11.00
2022-10-23T20:39:17.778Z,12.00
2022-10-23T20:41:45.246Z,14.40
2022-10-23T20:44:13.381Z,13.60
2022-10-23T20:46:39.888Z,11.00
2022-10-23T20:49:06.445Z,12.00
2022-10-23T20:51:33.088Z,9.75
2022-10-23T20:53:59.621Z,11.00
2022-10-23T20:56:36.463Z,13.00
2022-10-23T20:59:21.058Z,11.60
2022-10-23T21:01:50.183Z,11.75
2022-10-23T21:04:18.642Z,12.20
2022-10-23T21:07:07.948Z,12.00
2022-10-23T21:09:31.670Z,13.00
2022-10-23T21:11:58.160Z,11.50
2022-10-23T21:14:24.598Z,10.60
2022-10-23T21:16:51.143Z,11.60
2022-10-23T21:19:17.751Z,9.25
2022-10-23T21:21:44.228Z,11.00
2022-10-23T21:24:13.693Z,12.00
2022-10-23T21:26:40.188Z,11.40
2022-10-23T21:29:17.987Z,11.40
2022-10-23T21:31:45.267Z,11.60
2022-10-23T21:37:11.305Z,14.00
2022-10-23T21:39:34.966Z,11.25
2022-10-23T21:42:01.421Z,13.00
2022-10-23T21:44:27.843Z,13.50
2022-10-23T21:46:54.261Z,11.00
2022-10-23T21:49:20.734Z,11.80
2022-10-23T21:51:47.485Z,11.50
2022-10-23T21:54:17.708Z,15.00
2022-10-23T21:56:46.037Z,11.60
2022-10-23T21:59:13.716Z,10.20
2022-10-23T22:01:41.367Z,11.00
2022-10-23T22:04:08.049Z,11.60
2022-10-23T22:06:34.505Z,12.50
2022-10-23T22:09:00.925Z,11.75
2022-10-23T22:11:28.224Z,12.00
2022-10-23T22:13:55.140Z,11.00
2022-10-23T22:16:21.676Z,11.25
2022-10-23T22:18:48.214Z,11.00
2022-10-23T22:21:16.959Z,11.00
2022-10-23T22:23:43.728Z,11.40
2022-10-23T22:26:30.408Z,11.00
2022-10-23T22:28:58.107Z,13.80
2022-10-23T22:31:25.660Z,12.75
2022-10-23T22:33:52.677Z,14.00
2022-10-23T22:36:19.826Z,10.50
2022-10-23T22:38:46.422Z,13.20
2022-10-23T22:41:12.946Z,13.60
2022-10-23T22:43:39.377Z,13.00
2022-10-23T22:46:06.972Z,13.00
2022-10-23T22:48:34.081Z,12.25
2022-10-23T22:51:00.557Z,11.75
2022-10-23T22:53:27.404Z,14.00
2022-10-23T22:55:54.721Z,12.00
2022-10-23T22:58:21.452Z,12.40
2022-10-23T23:00:48.442Z,12.60
2022-10-23T23:03:15.207Z,12.80
2022-10-23T23:05:46.291Z,11.00
2022-10-23T23:08:13.348Z,11.75
2022-10-23T23:10:40.176Z,13.50
2022-10-23T23:13:06.848Z,13.00
2022-10-23T23:15:33.651Z,10.60
2022-10-23T23:18:00.106Z,14.00
2022-10-23T23:20:26.548Z,11.00
2022-10-23T23:22:53.019Z,12.00
2022-10-23T23:25:19.549Z,10.20
2022-10-23T23:27:46.823Z,11.00
2022-10-23T23:30:13.425Z,10.20
2022-10-23T23:32:39.914Z,10.00
2022-10-23T23:35:06.430Z,11.00
2022-10-23T23:37:32.869Z,10.00
2022-10-23T23:39:59.383Z,11.00
2022-10-23T23:42:25.931Z,13.00
2022-10-23T23:45:02.506Z,10.00
2022-10-23T23:47:29.477Z,11.25
2022-10-23T23:49:55.909Z,10.40
2022-10-23T23:52:22.387Z,10.80
2022-10-23T23:54:48.838Z,9.40
2022-10-23T23:57:15.292Z,10.00
2022-10-23T23:59:41.963Z,9.80
